createdAt,value
2022-12-17T00:02:07.819Z,100.00
2022-12-17T00:04:53.167Z,100.00
2022-12-17T00:07:39.026Z,100.00
2022-12-17T00:10:24.271Z,100.00
2022-12-17T00:13:09.403Z,100.00
2022-12-17T00:15:55.180Z,100.00
2022-12-17T00:18:41.831Z,100.00
2022-12-17T00:21:27.626Z,100.00
2022-12-17T00:24:13.194Z,100.00
2022-12-17T00:26:58.580Z,100.00
2022-12-17T00:29:44.022Z,100.00
2022-12-17T00:32:29.130Z,100.00
2022-12-17T00:35:14.493Z,100.00
2022-12-17T00:38:04.262Z,100.00
2022-12-17T00:40:50.530Z,100.00
2022-12-17T00:43:36.121Z,100.00
2022-12-17T00:46:22.205Z,100.00
2022-12-17T00:49:07.630Z,100.00
2022-12-17T00:51:53.060Z,100.00
2022-12-17T00:54:38.541Z,100.00
2022-12-17T00:57:25.692Z,100.00
2022-12-17T01:00:11.192Z,100.00
2022-12-17T01:02:56.678Z,100.00
2022-12-17T01:05:42.131Z,100.00
2022-12-17T01:08:27.624Z,100.00
2022-12-17T01:11:16.998Z,100.00
2022-12-17T01:14:02.101Z,100.00
2022-12-17T01:16:47.496Z,100.00
2022-12-17T01:19:32.601Z,100.00
2022-12-17T01:22:17.947Z,100.00
2022-12-17T01:25:03.337Z,100.00
2022-12-17T01:27:48.698Z,100.00
2022-12-17T01:30:34.146Z,100.00
2022-12-17T01:33:22.873Z,100.00
2022-12-17T01:36:08.380Z,100.00
2022-12-17T01:38:53.626Z,100.00
2022-12-17T01:41:39.012Z,100.00
2022-12-17T01:44:43.336Z,100.00
2022-12-17T01:47:28.596Z,100.00
2022-12-17T01:50:13.983Z,100.00
2022-12-17T01:52:59.464Z,100.00
2022-12-17T01:55:44.742Z,100.00
2022-12-17T01:58:30.286Z,100.00
2022-12-17T02:01:16.501Z,100.00
2022-12-17T02:04:01.906Z,100.00
2022-12-17T02:06:47.164Z,100.00
2022-12-17T02:09:32.907Z,100.00
2022-12-17T02:12:21.458Z,100.00
2022-12-17T02:15:08.238Z,100.00
2022-12-17T02:17:59.146Z,100.00
2022-12-17T02:20:49.565Z,100.00
2022-12-17T02:23:56.560Z,100.00
2022-12-17T02:26:55.599Z,100.00
2022-12-17T02:29:41.172Z,100.00
2022-12-17T02:32:26.454Z,100.00
2022-12-17T02:35:11.755Z,100.00
2022-12-17T02:37:56.900Z,100.00
2022-12-17T02:40:42.415Z,100.00
2022-12-17T02:43:27.639Z,100.00
2022-12-17T02:46:13.044Z,100.00
2022-12-17T02:48:58.523Z,100.00
2022-12-17T02:51:43.824Z,100.00
2022-12-17T02:54:29.081Z,100.00
2022-12-17T02:57:14.289Z,100.00
2022-12-17T02:59:59.541Z,100.00
2022-12-17T03:02:44.918Z,100.00
2022-12-17T03:05:46.056Z,100.00
2022-12-17T03:08:31.451Z,100.00
2022-12-17T03:11:16.961Z,100.00
2022-12-17T03:14:02.521Z,100.00
2022-12-17T03:16:47.977Z,100.00
2022-12-17T03:19:33.257Z,100.00
2022-12-17T03:22:18.852Z,100.00
2022-12-17T03:25:04.399Z,100.00
2022-12-17T03:27:50.028Z,100.00
2022-12-17T03:30:36.862Z,100.00
2022-12-17T03:33:23.610Z,100.00
2022-12-17T03:36:11.575Z,100.00
2022-12-17T03:38:57.095Z,100.00
2022-12-17T03:41:42.449Z,100.00
2022-12-17T03:44:27.719Z,100.00
2022-12-17T03:47:12.964Z,100.00
2022-12-17T03:49:58.374Z,100.00
2022-12-17T03:52:45.726Z,100.00
2022-12-17T03:55:30.973Z,100.00
2022-12-17T03:58:16.507Z,100.00
2022-12-17T04:01:01.655Z,100.00
2022-12-17T04:03:47.141Z,100.00
2022-12-17T04:06:32.632Z,100.00
2022-12-17T04:09:18.030Z,100.00
2022-12-17T04:12:03.420Z,100.00
2022-12-17T04:14:48.621Z,100.00
2022-12-17T04:17:34.126Z,100.00
2022-12-17T04:20:19.373Z,100.00
2022-12-17T04:23:04.633Z,100.00
2022-12-17T04:25:49.901Z,100.00
2022-12-17T04:28:34.981Z,100.00
2022-12-17T04:31:20.509Z,100.00
2022-12-17T04:34:05.939Z,100.00
2022-12-17T04:36:51.129Z,100.00
2022-12-17T04:39:36.476Z,100.00
2022-12-17T04:42:21.939Z,100.00
2022-12-17T04:45:07.203Z,100.00
2022-12-17T04:47:52.521Z,100.00
2022-12-17T04:50:37.863Z,100.00
2022-12-17T04:53:23.756Z,100.00
2022-12-17T04:56:08.958Z,100.00
2022-12-17T04:58:54.281Z,100.00
2022-12-17T05:01:39.783Z,100.00
2022-12-17T05:04:25.237Z,100.00
2022-12-17T05:07:10.615Z,100.00
2022-12-17T05:09:56.004Z,100.00
2022-12-17T05:12:41.482Z,100.00
2022-12-17T05:15:26.918Z,100.00
2022-12-17T05:18:12.424Z,100.00
2022-12-17T05:20:57.721Z,100.00
2022-12-17T05:23:43.134Z,100.00
2022-12-17T05:26:39.440Z,100.00
2022-12-17T05:29:24.695Z,100.00
2022-12-17T05:32:09.933Z,100.00
2022-12-17T05:34:55.378Z,100.00
2022-12-17T05:37:42.580Z,100.00
2022-12-17T05:40:27.686Z,100.00
2022-12-17T05:43:14.137Z,100.00
2022-12-17T05:45:59.476Z,100.00
2022-12-17T05:48:44.618Z,100.00
2022-12-17T05:51:32.472Z,100.00
2022-12-17T05:54:19.784Z,100.00
2022-12-17T05:57:05.040Z,100.00
2022-12-17T05:59:52.863Z,100.00
2022-12-17T06:02:38.280Z,100.00
2022-12-17T06:05:23.956Z,100.00
2022-12-17T06:08:09.387Z,100.00
2022-12-17T06:10:54.598Z,100.00
2022-12-17T06:13:39.975Z,100.00
2022-12-17T06:16:25.185Z,100.00
2022-12-17T06:19:10.591Z,100.00
2022-12-17T06:21:55.774Z,100.00
2022-12-17T06:24:45.668Z,100.00
2022-12-17T06:27:31.442Z,100.00
2022-12-17T06:30:18.844Z,100.00
2022-12-17T06:33:04.507Z,100.00
2022-12-17T06:35:49.774Z,100.00
2022-12-17T06:38:35.048Z,100.00
2022-12-17T06:41:20.316Z,100.00
2022-12-17T06:44:05.694Z,100.00
2022-12-17T06:46:51.109Z,100.00
2022-12-17T06:49:36.402Z,100.00
2022-12-17T06:52:21.588Z,100.00
2022-12-17T06:55:06.861Z,100.00
2022-12-17T06:57:52.129Z,100.00
2022-12-17T07:00:37.475Z,100.00
2022-12-17T07:03:23.007Z,100.00
2022-12-17T07:06:08.122Z,100.00
2022-12-17T07:08:53.453Z,100.00
2022-12-17T07:11:39.347Z,100.00
2022-12-17T07:14:24.761Z,100.00
2022-12-17T07:17:10.114Z,100.00
2022-12-17T07:19:55.107Z,100.00
2022-12-17T07:22:40.347Z,100.00
2022-12-17T07:25:25.650Z,100.00
2022-12-17T07:28:11.432Z,100.00
2022-12-17T07:30:59.691Z,100.00
2022-12-17T07:33:44.848Z,100.00
2022-12-17T07:36:29.995Z,100.00
2022-12-17T07:39:17.078Z,100.00
2022-12-17T07:42:02.304Z,100.00
2022-12-17T07:44:47.593Z,100.00
2022-12-17T07:47:32.812Z,100.00
2022-12-17T07:50:18.102Z,100.00
2022-12-17T07:53:03.358Z,100.00
2022-12-17T07:55:48.626Z,100.00
2022-12-17T07:58:33.919Z,100.00
2022-12-17T08:01:19.685Z,100.00
2022-12-17T08:04:04.868Z,100.00
2022-12-17T08:06:50.120Z,100.00
2022-12-17T08:09:35.414Z,100.00
2022-12-17T08:12:20.614Z,100.00
2022-12-17T08:15:05.823Z,100.00
2022-12-17T08:17:50.982Z,100.00
2022-12-17T08:20:36.369Z,100.00
2022-12-17T08:23:22.291Z,100.00
2022-12-17T08:26:07.604Z,100.00
2022-12-17T08:28:52.982Z,100.00
2022-12-17T08:31:38.926Z,100.00
2022-12-17T08:34:24.074Z,100.00
2022-12-17T08:37:09.613Z,100.00
2022-12-17T08:39:54.820Z,100.00
2022-12-17T08:42:40.060Z,100.00
2022-12-17T08:45:25.334Z,100.00
2022-12-17T08:48:10.779Z,100.00
2022-12-17T08:50:56.277Z,100.00
2022-12-17T08:53:41.997Z,100.00
2022-12-17T08:56:27.704Z,100.00
2022-12-17T08:59:12.861Z,100.00
2022-12-17T09:01:58.096Z,100.00
2022-12-17T09:04:43.367Z,100.00
2022-12-17T09:07:28.469Z,100.00
2022-12-17T09:10:13.553Z,100.00
2022-12-17T09:13:04.172Z,100.00
2022-12-17T09:15:50.023Z,100.00
2022-12-17T09:18:38.673Z,100.00
2022-12-17T09:21:23.963Z,100.00
2022-12-17T09:24:09.117Z,100.00
2022-12-17T09:26:54.311Z,100.00
2022-12-17T09:29:39.453Z,100.00
2022-12-17T09:32:24.998Z,100.00
2022-12-17T09:35:10.368Z,100.00
2022-12-17T09:37:55.577Z,100.00
2022-12-17T09:40:41.843Z,100.00
2022-12-17T09:43:47.524Z,100.00
2022-12-17T09:46:33.059Z,100.00
2022-12-17T09:49:18.203Z,100.00
2022-12-17T09:52:03.268Z,100.00
2022-12-17T09:54:55.103Z,80.75
2022-12-17T09:57:43.342Z,75.70
2022-12-17T10:00:35.632Z,70.49
2022-12-17T10:03:21.516Z,70.69
2022-12-17T10:06:06.774Z,71.04
2022-12-17T10:08:52.106Z,75.10
2022-12-17T10:11:41.966Z,83.85
2022-12-17T10:14:37.878Z,96.56
2022-12-17T10:17:23.080Z,100.00
2022-12-17T10:20:08.536Z,100.00
2022-12-17T10:23:00.706Z,100.00
2022-12-17T10:25:45.973Z,100.00
2022-12-17T10:28:32.152Z,100.00
2022-12-17T10:31:17.378Z,100.00
2022-12-17T10:34:02.746Z,100.00
2022-12-17T10:36:47.950Z,100.00
2022-12-17T10:39:40.358Z,100.00
2022-12-17T10:42:42.664Z,100.00
2022-12-17T10:45:47.169Z,100.00
2022-12-17T10:48:39.466Z,100.00
2022-12-17T10:51:24.534Z,100.00
2022-12-17T10:54:10.145Z,100.00
2022-12-17T10:56:55.864Z,100.00
2022-12-17T11:00:01.725Z,100.00
2022-12-17T11:02:47.497Z,100.00
2022-12-17T11:05:59.253Z,100.00
2022-12-17T11:08:45.077Z,100.00
2022-12-17T11:11:30.357Z,100.00
2022-12-17T11:14:15.542Z,100.00
2022-12-17T11:17:02.452Z,100.00
2022-12-17T11:19:55.462Z,100.00
2022-12-17T11:22:40.616Z,100.00
2022-12-17T11:25:28.220Z,100.00
2022-12-17T11:28:17.342Z,100.00
2022-12-17T11:31:05.733Z,100.00
2022-12-17T11:34:02.037Z,100.00
2022-12-17T11:36:52.773Z,100.00
2022-12-17T11:39:38.134Z,100.00
2022-12-17T11:42:26.262Z,100.00
2022-12-17T11:45:20.666Z,100.00
2022-12-17T11:48:07.324Z,100.00
2022-12-17T11:50:55.500Z,100.00
2022-12-17T11:53:44.768Z,100.00
2022-12-17T11:56:29.818Z,100.00
2022-12-17T11:59:18.608Z,100.00
2022-12-17T12:02:07.028Z,100.00
2022-12-17T12:04:55.519Z,100.00
2022-12-17T12:07:53.040Z,100.00
2022-12-17T12:10:43.546Z,100.00
2022-12-17T12:13:28.820Z,100.00
2022-12-17T12:16:17.654Z,99.43
2022-12-17T12:19:15.249Z,100.00
2022-12-17T12:22:21.303Z,100.00
2022-12-17T12:25:27.579Z,100.00
2022-12-17T12:28:25.309Z,100.00
2022-12-17T12:31:10.544Z,100.00
2022-12-17T12:34:07.425Z,100.00
2022-12-17T12:36:52.566Z,100.00
2022-12-17T12:39:39.281Z,100.00
2022-12-17T12:42:26.626Z,100.00
2022-12-17T12:45:21.063Z,100.00
2022-12-17T12:48:20.659Z,100.00
2022-12-17T12:51:05.973Z,100.00
2022-12-17T12:53:51.239Z,100.00
2022-12-17T12:56:46.184Z,95.35
2022-12-17T12:59:43.234Z,86.80
2022-12-17T13:02:40.795Z,82.79
2022-12-17T13:05:34.402Z,84.22
2022-12-17T13:08:18.966Z,86.80
2022-12-17T13:10:46.990Z,91.65
2022-12-17T13:13:16.495Z,92.93
2022-12-17T13:15:45.237Z,99.44
2022-12-17T13:18:17.799Z,100.00
2022-12-17T13:20:44.296Z,100.00
2022-12-17T13:23:14.812Z,100.00
2022-12-17T13:25:41.471Z,100.00
2022-12-17T13:28:31.043Z,100.00
2022-12-17T13:31:01.238Z,100.00
2022-12-17T13:33:30.761Z,100.00
2022-12-17T13:35:57.199Z,100.00
2022-12-17T13:38:27.116Z,100.00
2022-12-17T13:41:09.583Z,100.00
2022-12-17T13:43:43.434Z,100.00
2022-12-17T13:46:19.680Z,100.00
2022-12-17T13:48:52.062Z,100.00
2022-12-17T13:51:19.882Z,100.00
2022-12-17T13:54:12.756Z,100.00
2022-12-17T13:56:39.214Z,100.00
2022-12-17T13:59:09.627Z,100.00
2022-12-17T14:01:44.231Z,100.00
2022-12-17T14:04:18.720Z,100.00
2022-12-17T14:06:45.258Z,100.00
2022-12-17T14:09:17.308Z,100.00
2022-12-17T14:12:02.493Z,100.00
2022-12-17T14:14:30.478Z,100.00
2022-12-17T14:16:57.047Z,100.00
2022-12-17T14:19:24.166Z,100.00
2022-12-17T14:21:50.828Z,100.00
2022-12-17T14:24:17.434Z,100.00
2022-12-17T14:26:47.870Z,100.00
2022-12-17T14:29:14.527Z,100.00
2022-12-17T14:31:41.273Z,100.00
2022-12-17T14:34:11.244Z,100.00
2022-12-17T14:36:39.584Z,100.00
2022-12-17T14:39:11.327Z,100.00
2022-12-17T14:41:56.634Z,100.00
2022-12-17T14:44:27.656Z,100.00
2022-12-17T14:47:08.639Z,100.00
2022-12-17T14:49:35.203Z,100.00
2022-12-17T14:52:11.325Z,100.00
2022-12-17T14:54:37.858Z,100.00
2022-12-17T14:57:05.337Z,100.00
2022-12-17T14:59:32.157Z,100.00
2022-12-17T15:02:00.732Z,100.00
2022-12-17T15:04:27.555Z,100.00
2022-12-17T15:06:55.038Z,100.00
2022-12-17T15:09:21.617Z,100.00
2022-12-17T15:11:49.206Z,100.00
2022-12-17T15:14:15.766Z,100.00
2022-12-17T15:16:42.423Z,100.00
2022-12-17T15:19:09.275Z,100.00
2022-12-17T15:21:36.038Z,100.00
2022-12-17T15:24:02.743Z,100.00
2022-12-17T15:26:29.428Z,100.00
2022-12-17T15:28:56.093Z,100.00
2022-12-17T15:31:25.552Z,100.00
2022-12-17T15:33:53.069Z,100.00
2022-12-17T15:36:20.179Z,100.00
2022-12-17T15:38:47.042Z,100.00
2022-12-17T15:41:32.364Z,100.00
2022-12-17T15:43:59.224Z,100.00
2022-12-17T15:46:26.455Z,100.00
2022-12-17T15:48:53.279Z,100.00
2022-12-17T15:51:21.356Z,100.00
2022-12-17T15:53:48.508Z,100.00
2022-12-17T15:56:18.558Z,100.00
2022-12-17T15:58:45.317Z,100.00
2022-12-17T16:01:12.114Z,100.00
2022-12-17T16:03:38.754Z,100.00
2022-12-17T16:06:05.899Z,100.00
2022-12-17T16:08:32.563Z,100.00
2022-12-17T16:10:59.306Z,100.00
2022-12-17T16:13:25.972Z,100.00
2022-12-17T16:16:03.675Z,100.00
2022-12-17T16:18:31.020Z,100.00
2022-12-17T16:21:04.560Z,100.00
2022-12-17T16:23:31.394Z,100.00
2022-12-17T16:25:58.910Z,100.00
2022-12-17T16:28:26.155Z,100.00
2022-12-17T16:30:58.908Z,100.00
2022-12-17T16:33:25.567Z,100.00
2022-12-17T16:35:52.732Z,100.00
2022-12-17T16:38:19.482Z,100.00
2022-12-17T16:40:46.890Z,100.00
2022-12-17T16:43:13.648Z,100.00
2022-12-17T16:45:48.060Z,100.00
2022-12-17T16:48:15.140Z,100.00
2022-12-17T16:50:41.908Z,100.00
2022-12-17T16:53:09.552Z,100.00
2022-12-17T16:55:43.487Z,100.00
2022-12-17T16:58:10.359Z,100.00
2022-12-17T17:00:37.488Z,100.00
2022-12-17T17:03:04.954Z,100.00
2022-12-17T17:05:35.066Z,100.00
2022-12-17T17:08:02.087Z,100.00
2022-12-17T17:10:29.922Z,100.00
2022-12-17T17:12:57.154Z,100.00
2022-12-17T17:15:24.273Z,100.00
2022-12-17T17:17:54.789Z,100.00
2022-12-17T17:20:22.855Z,100.00
2022-12-17T17:22:50.179Z,100.00
2022-12-17T17:25:17.034Z,100.00
2022-12-17T17:27:43.710Z,100.00
2022-12-17T17:30:10.928Z,100.00
2022-12-17T17:32:37.943Z,100.00
2022-12-17T17:35:05.917Z,100.00
2022-12-17T17:37:32.846Z,100.00
2022-12-17T17:39:59.512Z,100.00
2022-12-17T17:42:26.200Z,100.00
2022-12-17T17:44:53.030Z,100.00
2022-12-17T17:47:19.898Z,100.00
2022-12-17T17:49:46.654Z,100.00
2022-12-17T17:52:13.743Z,100.00
2022-12-17T17:54:40.868Z,100.00
2022-12-17T17:57:08.015Z,100.00
2022-12-17T17:59:35.000Z,100.00
2022-12-17T18:02:02.486Z,100.00
2022-12-17T18:04:32.020Z,100.00
2022-12-17T18:09:45.633Z,100.00
2022-12-17T18:12:31.047Z,100.00
2022-12-17T18:15:15.425Z,100.00
2022-12-17T18:17:45.284Z,100.00
2022-12-17T18:20:12.216Z,100.00
2022-12-17T18:22:39.184Z,100.00
2022-12-17T18:25:06.253Z,100.00
2022-12-17T18:27:33.077Z,100.00
2022-12-17T18:29:59.864Z,100.00
2022-12-17T18:32:26.728Z,100.00
2022-12-17T18:37:35.481Z,100.00
2022-12-17T18:40:02.143Z,100.00
2022-12-17T18:42:47.666Z,100.00
2022-12-17T18:45:14.700Z,100.00
2022-12-17T18:47:42.903Z,100.00
2022-12-17T18:50:10.795Z,100.00
2022-12-17T18:52:38.585Z,100.00
2022-12-17T18:55:05.882Z,100.00
2022-12-17T18:57:32.742Z,100.00
2022-12-17T19:00:02.439Z,100.00
2022-12-17T19:02:30.521Z,100.00
2022-12-17T19:04:57.628Z,100.00
2022-12-17T19:07:25.121Z,100.00
2022-12-17T19:09:52.134Z,100.00
2022-12-17T19:12:19.183Z,100.00
2022-12-17T19:14:45.962Z,100.00
2022-12-17T19:17:12.666Z,100.00
2022-12-17T19:19:39.599Z,100.00
2022-12-17T19:22:06.523Z,100.00
2022-12-17T19:24:33.544Z,100.00
2022-12-17T19:27:00.842Z,100.00
2022-12-17T19:29:28.322Z,100.00
2022-12-17T19:31:55.447Z,100.00
2022-12-17T19:34:22.876Z,100.00
2022-12-17T19:36:49.921Z,100.00
2022-12-17T19:39:18.125Z,100.00
2022-12-17T19:41:45.249Z,100.00
2022-12-17T19:44:13.376Z,100.00
2022-12-17T19:46:40.178Z,100.00
2022-12-17T19:49:07.921Z,100.00
2022-12-17T19:51:34.835Z,100.00
2022-12-17T19:54:08.533Z,100.00
2022-12-17T19:56:36.135Z,100.00
2022-12-17T19:59:04.682Z,100.00
2022-12-17T20:01:32.499Z,100.00
2022-12-17T20:03:59.705Z,100.00
2022-12-17T20:06:27.725Z,100.00
2022-12-17T20:08:54.659Z,100.00
2022-12-17T20:11:33.526Z,100.00
2022-12-17T20:14:00.015Z,100.00
2022-12-17T20:16:27.297Z,100.00
2022-12-17T20:18:54.696Z,100.00
2022-12-17T20:21:21.346Z,100.00
2022-12-17T20:23:49.208Z,100.00
2022-12-17T20:26:17.175Z,100.00
2022-12-17T20:28:44.439Z,100.00
2022-12-17T20:31:11.433Z,100.00
2022-12-17T20:33:38.759Z,100.00
2022-12-17T20:36:09.963Z,100.00
2022-12-17T20:38:37.065Z,100.00
2022-12-17T20:41:17.534Z,100.00
2022-12-17T20:43:44.328Z,100.00
2022-12-17T20:46:10.997Z,100.00
2022-12-17T20:48:39.226Z,100.00
2022-12-17T20:51:07.152Z,100.00
2022-12-17T20:53:34.682Z,100.00
2022-12-17T20:56:02.536Z,100.00
2022-12-17T20:58:29.360Z,100.00
2022-12-17T21:01:03.167Z,100.00
2022-12-17T21:03:29.995Z,100.00
2022-12-17T21:05:56.856Z,100.00
2022-12-17T21:08:23.965Z,100.00
2022-12-17T21:10:55.711Z,100.00
2022-12-17T21:13:31.444Z,100.00
2022-12-17T21:15:59.495Z,100.00
2022-12-17T21:18:26.671Z,100.00
2022-12-17T21:20:57.690Z,100.00
2022-12-17T21:23:24.573Z,100.00
2022-12-17T21:26:02.263Z,100.00
2022-12-17T21:28:30.150Z,100.00
2022-12-17T21:30:57.279Z,100.00
2022-12-17T21:33:24.097Z,100.00
2022-12-17T21:35:51.131Z,100.00
2022-12-17T21:38:17.775Z,100.00
2022-12-17T21:40:44.552Z,100.00
2022-12-17T21:43:11.325Z,100.00
2022-12-17T21:45:38.954Z,100.00
2022-12-17T21:48:06.124Z,100.00
2022-12-17T21:50:43.481Z,100.00
2022-12-17T21:53:11.054Z,100.00
2022-12-17T21:55:37.877Z,100.00
2022-12-17T21:58:06.892Z,100.00
2022-12-17T22:00:33.601Z,100.00
2022-12-17T22:03:01.841Z,100.00
2022-12-17T22:05:28.842Z,100.00
2022-12-17T22:07:55.631Z,100.00
2022-12-17T22:10:37.745Z,100.00
2022-12-17T22:13:28.660Z,100.00
2022-12-17T22:15:55.666Z,100.00
2022-12-17T22:18:22.487Z,100.00
2022-12-17T22:21:01.637Z,100.00
2022-12-17T22:23:28.236Z,100.00
2022-12-17T22:25:57.301Z,100.00
2022-12-17T22:28:24.101Z,100.00
2022-12-17T22:31:10.959Z,100.00
2022-12-17T22:34:24.689Z,100.00
2022-12-17T22:39:15.526Z,100.00
2022-12-17T22:43:13.489Z,100.00
2022-12-17T22:44:42.078Z,100.00
2022-12-17T22:45:10.637Z,100.00
2022-12-17T22:47:39.020Z,100.00
2022-12-17T22:50:06.061Z,100.00
2022-12-17T22:52:33.652Z,100.00
2022-12-17T22:55:00.822Z,100.00
2022-12-17T22:57:36.058Z,100.00
2022-12-17T23:00:07.683Z,100.00
2022-12-17T23:02:34.485Z,100.00
2022-12-17T23:05:04.353Z,100.00
2022-12-17T23:07:32.059Z,100.00
2022-12-17T23:09:59.042Z,100.00
2022-12-17T23:12:44.411Z,100.00
2022-12-17T23:15:11.463Z,100.00
2022-12-17T23:17:41.370Z,100.00
2022-12-17T23:20:11.229Z,100.00
2022-12-17T23:22:40.480Z,100.00
2022-12-17T23:25:09.650Z,100.00
2022-12-17T23:30:38.773Z,100.00
2022-12-17T23:33:16.890Z,100.00
2022-12-17T23:35:48.219Z,100.00
2022-12-17T23:38:15.246Z,100.00
2022-12-17T23:40:42.850Z,100.00
2022-12-17T23:43:12.971Z,100.00
2022-12-17T23:45:43.942Z,100.00
2022-12-17T23:48:10.847Z,100.00
2022-12-17T23:50:37.572Z,100.00
2022-12-17T23:53:04.240Z,100.00
2022-12-17T23:55:35.635Z,100.00
2022-12-17T23:58:03.735Z,100.00
